Map

Track Data

SID SEASON NUMBER BASIN SUBBASIN NAME ISO_TIME NATURE LAT LON WMO_WIND WMO_PRES WMO_AGENCY TRACK_TYPE DIST2LAND LANDFALL IFLAG USA_AGENCY USA_ATCF_ID USA_LAT USA_LON USA_RECORD USA_STATUS USA_WIND USA_PRES USA_SSHS USA_R34_NE USA_R34_SE USA_R34_SW USA_R34_NW USA_R50_NE USA_R50_SE USA_R50_SW USA_R50_NW USA_R64_NE USA_R64_SE USA_R64_SW USA_R64_NW USA_POCI USA_ROCI USA_RMW USA_EYE TOKYO_LAT TOKYO_LON TOKYO_GRADE TOKYO_WIND TOKYO_PRES TOKYO_R50_DIR TOKYO_R50_LONG TOKYO_R50_SHORT TOKYO_R30_DIR TOKYO_R30_LONG TOKYO_R30_SHORT TOKYO_LAND CMA_LAT CMA_LON CMA_CAT CMA_WIND CMA_PRES HKO_LAT HKO_LON HKO_CAT HKO_WIND HKO_PRES NEWDELHI_LAT NEWDELHI_LON NEWDELHI_GRADE NEWDELHI_WIND NEWDELHI_PRES NEWDELHI_CI NEWDELHI_DP NEWDELHI_POCI REUNION_LAT REUNION_LON REUNION_TYPE REUNION_WIND REUNION_PRES REUNION_TNUM REUNION_CI REUNION_RMW REUNION_R34_NE REUNION_R34_SE REUNION_R34_SW REUNION_R34_NW REUNION_R50_NE REUNION_R50_SE REUNION_R50_SW REUNION_R50_NW REUNION_R64_NE REUNION_R64_SE REUNION_R64_SW REUNION_R64_NW BOM_LAT BOM_LON BOM_TYPE BOM_WIND BOM_PRES BOM_TNUM BOM_CI BOM_RMW BOM_R34_NE BOM_R34_SE BOM_R34_SW BOM_R34_NW BOM_R50_NE BOM_R50_SE BOM_R50_SW BOM_R50_NW BOM_R64_NE BOM_R64_SE BOM_R64_SW BOM_R64_NW BOM_ROCI BOM_POCI BOM_EYE BOM_POS_METHOD BOM_PRES_METHOD NADI_LAT NADI_LON NADI_CAT NADI_WIND NADI_PRES WELLINGTON_LAT WELLINGTON_LON WELLINGTON_WIND WELLINGTON_PRES DS824_LAT DS824_LON DS824_STAGE DS824_WIND DS824_PRES TD9636_LAT TD9636_LON TD9636_STAGE TD9636_WIND TD9636_PRES TD9635_LAT TD9635_LON TD9635_WIND TD9635_PRES TD9635_ROCI NEUMANN_LAT NEUMANN_LON NEUMANN_CLASS NEUMANN_WIND NEUMANN_PRES MLC_LAT MLC_LON MLC_CLASS MLC_WIND MLC_PRES USA_GUST BOM_GUST BOM_GUST_PER REUNION_GUST REUNION_GUST_PER USA_SEAHGT USA_SEARAD_NE USA_SEARAD_SE USA_SEARAD_SW USA_SEARAD_NW STORM_SPEED STORM_DIR
1883080S15054 1883 12 SI MM NOT_NAMED 1883-03-21 06:00:00 NR -15.0000 53.7000 reunion spur-split 344 333 _____O________ -1 -15.0000 53.7000 99 9.90000 2 292
1883080S15054 1883 12 SI MM NOT_NAMED 1883-03-21 09:00:00 NR -14.9668 53.6158 spur-split 333 322 _____P________ -1 -14.9668 53.6158 99 2 286
1883080S15054 1883 12 SI MM NOT_NAMED 1883-03-21 12:00:00 NR -14.9533 53.5326 spur-split 322 322 _____P________ -1 -14.9533 53.5326 99 2 265
1883080S15054 1883 12 SI MM NOT_NAMED 1883-03-21 15:00:00 NR -14.9795 53.4512 spur-split 322 311 _____P________ -1 -14.9795 53.4512 99 2 234
1883080S15054 1883 12 SI MM NOT_NAMED 1883-03-21 18:00:00 NR -15.0652 53.3725 spur-split 311 300 _____P________ -1 -15.0652 53.3725 99 3 210
1883080S15054 1883 12 SI MM NOT_NAMED 1883-03-21 21:00:00 NR -15.2301 53.2973 spur-split 300 289 _____P________ -1 -15.2301 53.2973 99 5 199
1883080S15054 1883 12 SI MM NOT_NAMED 1883-03-22 00:00:00 NR -15.4942 53.2263 spur-split 289 289 _____P________ -1 -15.4942 53.2263 99 7 192
1883080S15054 1883 12 SI MM NOT_NAMED 1883-03-22 03:00:00 NR -15.8775 53.1603 spur-split 294 286 _____P________ -1 -15.8775 53.1603 99 9 187
1883080S15054 1883 12 SI MM NOT_NAMED 1883-03-22 06:00:00 NR -16.4000 53.1000 reunion spur-split 299 299 _____O________ -1 -16.4000 53.1000 99 9.90000 12 185
1883080S15054 1883 12 SI MM NOT_NAMED 1883-03-22 09:00:00 NR -17.0730 53.0473 spur-split 322 322 _____P________ -1 -17.0730 53.0473 99 15 184
1883080S15054 1883 12 SI MM NOT_NAMED 1883-03-22 12:00:00 NR -17.8717 53.0084 spur-split 361 352 _____P________ -1 -17.8717 53.0084 99 17 182
1883080S15054 1883 12 SI MM NOT_NAMED 1883-03-22 15:00:00 NR -18.7624 52.9907 spur-split 344 277 _____P________ -1 -18.7624 52.9907 99 19 181
1883080S15054 1883 12 SI MM NOT_NAMED 1883-03-22 18:00:00 NR -19.7108 53.0020 spur-split 277 235 _____P________ -1 -19.7108 53.0020 99 19 178
1883080S15054 1883 12 SI MM NOT_NAMED 1883-03-22 21:00:00 NR -20.6829 53.0503 spur-split 222 217 _____P________ -1 -20.6829 53.0503 99 20 176
1883080S15054 1883 12 SI MM NOT_NAMED 1883-03-23 00:00:00 NR -21.6445 53.1438 spur-split 224 217 _____P________ -1 -21.6445 53.1438 99 19 173
1883080S15054 1883 12 SI MM NOT_NAMED 1883-03-23 03:00:00 NR -22.5614 53.2909 spur-split 252 252 _____P________ -1 -22.5614 53.2909 99 18 169
1883080S15054 1883 12 SI MM NOT_NAMED 1883-03-23 06:00:00 NR -23.4000 53.5000 reunion spur-split 298 298 _____O________ -1 -23.4000 53.5000 99 9.90000 15 163
1883080S15054 1883 12 SI MM NOT_NAMED 1883-03-23 09:00:00 NR -24.0292 53.7724 spur-split 338 338 _____P________ -1 -24.0292 53.7724 99 13 155
1883080S15054 1883 12 SI MM NOT_NAMED 1883-03-23 12:00:00 NR -24.5928 54.1085 spur-split 388 388 _____P________ -1 -24.5928 54.1085 99 13 148
1883080S15054 1883 12 SI MM NOT_NAMED 1883-03-23 15:00:00 NR -25.1033 54.5001 spur-split 428 428 _____P________ -1 -25.1033 54.5001 99 12 143
1883080S15054 1883 12 SI MM NOT_NAMED 1883-03-23 18:00:00 NR -25.5734 54.9389 spur-split 474 473 _____P________ -1 -25.5734 54.9389 99 12 138
1883080S15054 1883 12 SI MM NOT_NAMED 1883-03-23 21:00:00 NR -26.0156 55.4166 spur-split 514 514 _____P________ -1 -26.0156 55.4166 99 12 134
1883080S15054 1883 12 SI MM NOT_NAMED 1883-03-24 00:00:00 NR -26.4423 55.9249 spur-split 559 559 _____P________ -1 -26.4423 55.9249 99 13 132
1883080S15054 1883 12 SI MM NOT_NAMED 1883-03-24 03:00:00 NR -26.8662 56.4554 spur-split 621 621 _____P________ -1 -26.8662 56.4554 99 13 132
1883080S15054 1883 12 SI MM NOT_NAMED 1883-03-24 06:00:00 NR -27.3000 57.0000 reunion spur-split 674 674 _____O________ -1 -27.3000 57.0000 99 9.90000 13 135
1883080S15054 1883 12 SI MM NOT_NAMED 1883-03-24 09:00:00 NR -27.7985 57.5144 spur-split 740 740 _____P________ -1 -27.7985 57.5144 99 14 137
1883080S15054 1883 12 SI MM NOT_NAMED 1883-03-24 12:00:00 NR -28.2997 58.0505 spur-split 811 811 _____P________ -1 -28.2997 58.0505 99 14 136
1883080S15054 1883 12 SI MM NOT_NAMED 1883-03-24 15:00:00 NR -28.8024 58.6060 spur-split 880 880 _____P________ -1 -28.8024 58.6060 99 14 135
1883080S15054 1883 12 SI MM NOT_NAMED 1883-03-24 18:00:00 NR -29.3054 59.1790 spur-split 953 953 _____P________ -1 -29.3054 59.1790 99 14 135
1883080S15054 1883 12 SI MM NOT_NAMED 1883-03-24 21:00:00 NR -29.8077 59.7671 spur-split 1028 1028 _____P________ -1 -29.8077 59.7671 99 14 134
1883080S15054 1883 12 SI MM NOT_NAMED 1883-03-25 00:00:00 NR -30.3083 60.3682 spur-split 1103 1103 _____P________ -1 -30.3083 60.3682 99 14 134
1883080S15054 1883 12 SI MM NOT_NAMED 1883-03-25 03:00:00 NR -30.8060 60.9799 spur-split 1179 1179 _____P________ -1 -30.8060 60.9799 99 15 133
1883080S15054 1883 12 SI MM NOT_NAMED 1883-03-25 06:00:00 NR -31.3000 61.6000 reunion spur-split 1256 1256 _____O________ -1 -31.3000 61.6000 99 9.90000 15 133
1883080S15054 1883 12 SI MM NOT_NAMED 1883-03-25 09:00:00 NR -31.8445 62.2929 spur-split 1337 1337 _____P________ -1 -31.8445 62.2929 99 16 132
1883080S15054 1883 12 SI MM NOT_NAMED 1883-03-25 12:00:00 NR -32.3923 63.0081 spur-split 1429 1429 _____P________ -1 -32.3923 63.0081 99 16 132
1883080S15054 1883 12 SI MM NOT_NAMED 1883-03-25 15:00:00 NR -32.9312 63.7294 spur-split 1506 1506 _____P________ -1 -32.9312 63.7294 99 16 131
1883080S15054 1883 12 SI MM NOT_NAMED 1883-03-25 18:00:00 NR -33.4498 64.4395 spur-split 1584 1584 _____P________ -1 -33.4498 64.4395 99 15 131
1883080S15054 1883 12 SI MM NOT_NAMED 1883-03-25 21:00:00 NR -33.9368 65.1207 spur-split 1664 1623 _____P________ -1 -33.9368 65.1207 99 14 130
1883080S15054 1883 12 SI MM NOT_NAMED 1883-03-26 00:00:00 NR -34.3811 65.7542 spur-split 1621 1571 _____P________ -1 -34.3811 65.7542 99 13 130
1883080S15054 1883 12 SI MM NOT_NAMED 1883-03-26 03:00:00 NR -34.7723 66.3206 spur-split 1571 1533 _____P________ -1 -34.7723 66.3206 99 11 130
1883080S15054 1883 12 SI MM NOT_NAMED 1883-03-26 06:00:00 NR -35.1000 66.8000 reunion spur-split 1533 1507 _____O________ -1 -35.1000 66.8000 99 9.90000 9 130
1883080S15054 1883 12 SI MM NOT_NAMED 1883-03-26 09:00:00 NR -35.3575 67.1777 spur-split 1496 1484 _____P________ -1 -35.3575 67.1777 99 7 130
1883080S15054 1883 12 SI MM NOT_NAMED 1883-03-26 12:00:00 NR -35.5513 67.4605 spur-split 1472 1460 _____P________ -1 -35.5513 67.4605 99 5 130
1883080S15054 1883 12 SI MM NOT_NAMED 1883-03-26 15:00:00 NR -35.6911 67.6610 spur-split 1460 1448 _____P________ -1 -35.6911 67.6610 99 4 131
1883080S15054 1883 12 SI MM NOT_NAMED 1883-03-26 18:00:00 NR -35.7862 67.7924 spur-split 1448 1448 _____P________ -1 -35.7862 67.7924 99 2 133
1883080S15054 1883 12 SI MM NOT_NAMED 1883-03-26 21:00:00 NR -35.8457 67.8681 spur-split 1448 1436 _____P________ -1 -35.8457 67.8681 99 1 138
1883080S15054 1883 12 SI MM NOT_NAMED 1883-03-27 00:00:00 NR -35.8785 67.9020 spur-split 1436 1436 _____P________ -1 -35.8785 67.9020 99 1 149
1883080S15054 1883 12 SI MM NOT_NAMED 1883-03-27 03:00:00 NR -35.8937 67.9080 spur-split 1436 1436 _____P________ -1 -35.8937 67.9080 99 0 0
1883080S15054 1883 12 SI MM NOT_NAMED 1883-03-27 06:00:00 NR -35.9000 67.9000 reunion spur-split 1436 _____O________ -1 -35.9000 67.9000 99 9.90000 0 0

About IBTrACS Database

This database is a web-friendly format of International Best Track Archive for Climate Stewardship (IBTrACS), a global best track data archive curated by NOAA dating back to 1842.

Updated: 2021-11-26